Time;durP1;ratioP1;P1;durP2;ratioP2;P2;SDS_P1;SDS_P2;PMS_P1;PMS_P2;Temp;Humidity;BMP_temperature;BMP_pressure;BME280_temperature;BME280_humidity;BME280_pressure;Samples;Min_cycle;Max_cycle;Signal;HPM_P1;HPM_P2
2023/03/10 00:00:11;;;;;;;42.80;20.60;;;;;;;0.62;100.00;98910.44;7401495;19;20367;-69
2023/03/10 00:02:45;;;;;;;41.22;19.90;;;;;;;0.64;100.00;98900.97;7401379;19;20022;-68
2023/03/10 00:05:15;;;;;;;39.90;19.58;;;;;;;0.63;100.00;98900.13;7401105;19;20090;-68
2023/03/10 00:07:43;;;;;;;47.58;20.45;;;;;;;0.66;100.00;98914.72;7401179;19;20018;-69
2023/03/10 00:10:15;;;;;;;42.58;18.88;;;;;;;0.67;100.00;98900.97;7401198;19;20018;-68
2023/03/10 00:12:44;;;;;;;44.40;20.40;;;;;;;0.67;100.00;98884.59;7399984;19;20017;-69
2023/03/10 00:15:14;;;;;;;42.92;19.73;;;;;;;0.67;100.00;98893.22;7400670;19;20015;-68
2023/03/10 00:17:48;;;;;;;48.40;20.65;;;;;;;0.69;100.00;98899.19;7400518;19;20027;-68
2023/03/10 00:20:18;;;;;;;44.85;19.00;;;;;;;0.70;100.00;98888.00;7401173;19;20026;-69
2023/03/10 00:22:47;;;;;;;45.88;19.52;;;;;;;0.72;100.00;98882.81;7399872;19;20011;-69
2023/03/10 00:25:16;;;;;;;44.03;19.60;;;;;;;0.71;100.00;98873.34;7400324;19;20040;-69
2023/03/10 00:27:45;;;;;;;42.35;20.50;;;;;;;0.72;100.00;98872.50;7400479;19;20014;-68
2023/03/10 00:30:14;;;;;;;46.33;20.27;;;;;;;0.72;100.00;98865.63;7400058;19;20033;-69
2023/03/10 00:32:45;;;;;;;47.97;19.75;;;;;;;0.72;100.00;98857.88;7399972;19;20018;-68
2023/03/10 00:35:14;;;;;;;42.42;20.27;;;;;;;0.73;100.00;98850.97;7399729;19;20015;-68
2023/03/10 00:37:42;;;;;;;45.33;19.83;;;;;;;0.73;100.00;98848.41;7397011;19;20010;-68
2023/03/10 00:40:13;;;;;;;45.22;19.75;;;;;;;0.74;100.00;98826.88;7399766;19;20368;-69
2023/03/10 00:42:43;;;;;;;42.80;19.70;;;;;;;0.74;100.00;98827.72;7401126;19;20045;-69
2023/03/10 00:45:12;;;;;;;45.28;20.70;;;;;;;0.73;100.00;98818.25;7399995;19;20024;-69
2023/03/10 00:47:41;;;;;;;41.17;18.83;;;;;;;0.74;100.00;98809.66;7399833;19;20022;-69
2023/03/10 00:50:13;;;;;;;43.63;18.90;;;;;;;0.75;100.00;98808.78;7399384;19;20011;-69
2023/03/10 00:52:42;;;;;;;46.97;20.75;;;;;;;0.76;100.00;98802.75;7397005;19;20011;-69
2023/03/10 00:55:11;;;;;;;44.88;19.70;;;;;;;0.77;100.00;98795.84;7399689;19;20022;-69
2023/03/10 00:57:39;;;;;;;43.95;18.95;;;;;;;0.78;100.00;98797.56;7399148;19;20511;-69
2023/03/10 01:00:10;;;;;;;41.72;18.27;;;;;;;0.78;100.00;98789.81;7399543;19;20087;-69
2023/03/10 01:02:38;;;;;;;46.38;19.30;;;;;;;0.78;100.00;98788.09;7399554;19;20363;-69
2023/03/10 01:05:07;;;;;;;43.85;19.70;;;;;;;0.79;100.00;98782.03;7399363;19;20371;-69
2023/03/10 01:07:38;;;;;;;41.45;18.65;;;;;;;0.80;100.00;98773.44;7398832;19;20011;-69
2023/03/10 01:10:08;;;;;;;42.60;17.75;;;;;;;0.81;100.00;98758.81;7398918;19;20485;-69
2023/03/10 01:12:37;;;;;;;41.97;19.33;;;;;;;0.82;100.00;98755.31;7398768;19;20018;-67
2023/03/10 01:15:06;;;;;;;42.88;19.85;;;;;;;0.84;100.00;98752.75;7399084;19;20014;-67
2023/03/10 01:17:35;;;;;;;41.42;18.50;;;;;;;0.85;100.00;98741.53;7396744;19;20014;-68
2023/03/10 01:20:05;;;;;;;44.45;18.73;;;;;;;0.85;100.00;98732.06;7398487;19;20020;-68
2023/03/10 01:22:33;;;;;;;41.53;18.25;;;;;;;0.87;100.00;98727.72;7396512;19;20019;-68
2023/03/10 01:25:05;;;;;;;44.17;19.88;;;;;;;0.87;100.00;98717.38;7398647;19;20022;-68
2023/03/10 01:27:40;;;;;;;46.03;18.80;;;;;;;0.89;100.00;98709.63;7399028;19;20037;-68
2023/03/10 01:30:10;;;;;;;45.60;20.45;;;;;;;0.90;100.00;98699.28;7399012;19;20007;-68
2023/03/10 01:32:40;;;;;;;49.13;20.35;;;;;;;0.91;100.00;98684.63;7398612;19;20018;-68
2023/03/10 01:35:09;;;;;;;43.78;20.23;;;;;;;0.92;100.00;98679.47;7397905;19;20392;-68
2023/03/10 01:37:51;;;;;;;49.53;19.52;;;;;;;0.93;100.00;98675.97;7395206;19;20029;-68
2023/03/10 01:40:22;;;;;;;47.67;19.65;;;;;;;0.95;100.00;98675.97;7397835;19;20018;-68
2023/03/10 01:42:51;;;;;;;53.28;21.83;;;;;;;0.95;100.00;98668.25;7395560;19;20018;-68
2023/03/10 01:45:49;;;;;;;47.33;19.58;;;;;;;0.96;100.00;98668.22;7399183;19;20037;-68
2023/03/10 01:48:19;;;;;;;51.95;20.85;;;;;;;0.97;100.00;98667.34;7400620;19;20019;-68
2023/03/10 01:50:50;;;;;;;51.63;21.23;;;;;;;1.00;100.00;98662.97;7398756;19;20011;-68
2023/03/10 01:53:21;;;;;;;55.83;21.38;;;;;;;1.00;100.00;98660.41;7397389;19;20018;-68
2023/03/10 01:55:57;;;;;;;50.83;19.33;;;;;;;1.00;100.00;98652.66;7396319;19;20014;-68
2023/03/10 01:58:31;;;;;;;50.35;19.67;;;;;;;1.03;100.00;98650.03;7397603;19;20375;-68
2023/03/10 02:00:59;;;;;;;59.97;22.35;;;;;;;1.03;100.00;98642.28;7395913;19;20015;-68
2023/03/10 02:03:32;;;;;;;57.08;22.23;;;;;;;1.02;100.00;98627.66;7396480;19;20040;-69
2023/03/10 02:06:04;;;;;;;57.25;21.17;;;;;;;1.04;100.00;98623.34;7397096;19;20041;-68
2023/03/10 02:08:36;;;;;;;56.22;22.38;;;;;;;1.05;100.00;98617.25;7396905;19;20018;-68
2023/03/10 02:11:08;;;;;;;60.10;23.65;;;;;;;1.04;100.00;98606.09;7395529;19;20014;-68
2023/03/10 02:13:36;;;;;;;53.83;21.95;;;;;;;1.05;100.00;98605.22;7396521;19;20010;-69
2023/03/10 02:16:05;;;;;;;54.83;21.58;;;;;;;1.04;100.00;98595.75;7396159;19;20036;-69
2023/03/10 02:18:35;;;;;;;54.40;20.63;;;;;;;1.06;100.00;98595.72;7396442;19;20018;-69
2023/03/10 02:21:15;;;;;;;58.08;22.13;;;;;;;1.06;100.00;98596.59;7396885;19;20011;-69
2023/03/10 02:23:50;;;;;;;52.42;21.50;;;;;;;1.07;100.00;98592.28;7395464;19;20014;-69
2023/03/10 02:26:28;;;;;;;54.25;21.52;;;;;;;1.07;100.00;98590.53;7396345;19;20029;-69
2023/03/10 02:29:03;;;;;;;58.80;21.80;;;;;;;1.08;100.00;98584.50;7396278;19;20481;-69
2023/03/10 02:31:33;;;;;;;62.85;21.55;;;;;;;1.10;100.00;98569.84;7395394;19;20014;-69
2023/03/10 02:34:02;;;;;;;57.38;20.80;;;;;;;1.10;100.00;98561.22;7394444;19;20033;-69
2023/03/10 02:36:31;;;;;;;56.38;21.58;;;;;;;1.10;100.00;98559.50;7395351;19;20041;-69
2023/03/10 02:39:00;;;;;;;54.88;19.70;;;;;;;1.11;100.00;98556.03;7394965;19;20029;-69
2023/03/10 02:41:32;;;;;;;53.50;20.20;;;;;;;1.12;100.00;98554.31;7395881;19;20014;-69
2023/03/10 02:44:06;;;;;;;57.60;21.90;;;;;;;1.13;100.00;98538.78;7394542;19;20036;-69
2023/03/10 02:46:35;;;;;;;56.90;19.75;;;;;;;1.14;100.00;98534.47;7396573;19;20392;-69
2023/03/10 02:49:06;;;;;;;53.00;20.98;;;;;;;1.16;100.00;98535.28;7395629;19;20037;-70
2023/03/10 02:51:37;;;;;;;55.00;20.17;;;;;;;1.17;100.00;98525.81;7396452;19;20024;-69
2023/03/10 02:54:07;;;;;;;51.67;20.70;;;;;;;1.14;100.00;98511.22;7395964;19;20035;-69
2023/03/10 02:56:36;;;;;;;51.83;19.20;;;;;;;1.18;100.00;98509.44;7396011;19;20010;-71
2023/03/10 02:59:08;;;;;;;52.20;20.27;;;;;;;1.19;100.00;98501.66;7396237;19;20027;-69
2023/03/10 03:01:37;;;;;;;49.70;19.25;;;;;;;1.20;100.00;98490.44;7394398;19;20040;-69
2023/03/10 03:04:05;;;;;;;52.28;18.27;;;;;;;1.21;100.00;98488.69;7394249;19;20018;-69
2023/03/10 03:06:34;;;;;;;45.65;18.60;;;;;;;1.21;100.00;98481.78;7395446;19;20036;-69
2023/03/10 03:09:03;;;;;;;48.85;19.35;;;;;;;1.22;100.00;98475.75;7395413;19;20036;-69
2023/03/10 03:11:31;;;;;;;49.80;18.75;;;;;;;1.22;100.00;98470.59;7395026;19;20032;-69
2023/03/10 03:14:00;;;;;;;47.72;17.70;;;;;;;1.24;100.00;98468.84;7398016;19;20041;-69
2023/03/10 03:16:31;;;;;;;51.55;19.15;;;;;;;1.26;100.00;98466.22;7402216;19;20018;-69
2023/03/10 03:19:00;;;;;;;48.17;18.70;;;;;;;1.26;100.00;98455.88;7402382;19;20010;-69
2023/03/10 03:21:28;;;;;;;44.63;17.58;;;;;;;1.27;100.00;98462.75;7402770;19;20018;-69
2023/03/10 03:23:57;;;;;;;46.22;18.67;;;;;;;1.29;100.00;98456.66;7400752;19;20048;-69
2023/03/10 03:26:27;;;;;;;53.85;20.25;;;;;;;1.28;100.00;98447.22;7402674;19;20022;-69
2023/03/10 03:28:55;;;;;;;48.25;18.35;;;;;;;1.30;100.00;98442.88;7402580;19;20032;-70
2023/03/10 03:31:26;;;;;;;45.65;18.48;;;;;;;1.32;100.00;98444.59;7402427;19;20022;-69
2023/03/10 03:33:57;;;;;;;50.85;18.48;;;;;;;1.33;100.00;98438.50;7400227;19;20014;-70
2023/03/10 03:36:25;;;;;;;55.45;21.20;;;;;;;1.35;100.00;98423.84;7402051;19;20363;-70
2023/03/10 03:38:54;;;;;;;56.60;19.35;;;;;;;1.36;100.00;98421.22;7399967;19;20010;-69
2023/03/10 03:41:23;;;;;;;61.72;20.90;;;;;;;1.38;100.00;98419.47;7401805;19;20011;-69
2023/03/10 03:43:52;;;;;;;56.95;20.23;;;;;;;1.39;100.00;98418.56;7400246;19;20018;-70
2023/03/10 03:46:20;;;;;;;55.92;20.42;;;;;;;1.42;100.00;98404.75;7402012;19;20018;-70
2023/03/10 03:48:49;;;;;;;54.90;20.70;;;;;;;1.44;100.00;98402.94;7401806;19;20018;-68
2023/03/10 03:51:20;;;;;;;52.72;20.27;;;;;;;1.45;100.00;98392.59;7402046;19;20014;-70
2023/03/10 03:53:49;;;;;;;55.70;20.17;;;;;;;1.48;100.00;98390.81;7399514;19;20036;-69
2023/03/10 03:56:17;;;;;;;57.55;19.15;;;;;;;1.48;100.00;98383.94;7401096;19;20006;-70
2023/03/10 03:58:46;;;;;;;59.30;20.02;;;;;;;1.50;100.00;98381.31;7401480;19;20022;-70
2023/03/10 04:01:14;;;;;;;48.38;18.55;;;;;;;1.51;100.00;98372.69;7401517;19;20023;-69
2023/03/10 04:03:43;;;;;;;55.42;19.52;;;;;;;1.54;100.00;98375.19;7399886;19;20018;-69
2023/03/10 04:06:12;;;;;;;51.47;18.92;;;;;;;1.56;100.00;98371.66;7401248;19;20023;-69
2023/03/10 04:08:43;;;;;;;54.42;20.67;;;;;;;1.57;100.00;98363.03;7401047;19;20099;-69
2023/03/10 04:11:12;;;;;;;59.70;21.30;;;;;;;1.58;100.00;98362.16;7401642;19;20019;-70
2023/03/10 04:13:40;;;;;;;58.65;20.67;;;;;;;1.61;100.00;98359.47;7399754;19;20018;-69
2023/03/10 04:16:10;;;;;;;60.40;22.33;;;;;;;1.62;100.00;98355.19;7400626;19;20032;-69
2023/03/10 04:18:38;;;;;;;57.53;20.38;;;;;;;1.63;100.00;98341.34;7398060;19;20082;-69
2023/03/10 04:21:07;;;;;;;56.58;20.23;;;;;;;1.65;100.00;98346.50;7400198;19;20472;-69
2023/03/10 04:23:35;;;;;;;55.38;18.98;;;;;;;1.66;100.00;98340.47;7397219;19;20015;-70
2023/03/10 04:26:08;;;;;;;55.45;20.02;;;;;;;1.66;100.00;98336.13;7398261;19;20031;-70
2023/03/10 04:28:37;;;;;;;52.70;19.40;;;;;;;1.66;100.00;98330.94;7400102;19;20011;-69
2023/03/10 04:31:06;;;;;;;48.33;18.85;;;;;;;1.67;100.00;98332.66;7400429;19;20031;-69
2023/03/10 04:33:34;;;;;;;52.70;18.65;;;;;;;1.68;100.00;98326.59;7399081;19;20467;-69
2023/03/10 04:36:05;;;;;;;60.53;20.95;;;;;;;1.70;100.00;98327.41;7398020;19;20023;-68
2023/03/10 04:38:34;;;;;;;56.35;20.35;;;;;;;1.71;100.00;98329.09;7397104;19;20040;-70
2023/03/10 04:41:03;;;;;;;56.30;21.10;;;;;;;1.71;100.00;98323.09;7399696;19;20506;-68
2023/03/10 04:43:35;;;;;;;52.72;19.92;;;;;;;1.72;100.00;98319.59;7398681;19;20023;-69
2023/03/10 04:46:03;;;;;;;58.17;20.65;;;;;;;1.72;100.00;98319.59;7400433;19;20102;-69
2023/03/10 04:48:32;;;;;;;57.88;20.65;;;;;;;1.70;100.00;98306.72;7399794;19;20015;-69
2023/03/10 04:51:03;;;;;;;53.55;19.65;;;;;;;1.72;100.00;98309.25;7399435;19;20022;-69
2023/03/10 04:53:32;;;;;;;53.13;20.58;;;;;;;1.73;100.00;98298.91;7396777;19;20015;-68
2023/03/10 04:56:01;;;;;;;57.33;21.42;;;;;;;1.75;100.00;98304.88;7400106;19;20381;-68
2023/03/10 04:58:29;;;;;;;55.15;20.48;;;;;;;1.76;100.00;98300.56;7397095;19;20035;-69
2023/03/10 05:01:01;;;;;;;57.67;20.88;;;;;;;1.77;100.00;98291.91;7399445;19;20082;-69
2023/03/10 05:03:30;;;;;;;52.35;19.85;;;;;;;1.77;100.00;98290.19;7397861;19;20099;-69
2023/03/10 05:05:58;;;;;;;54.20;19.67;;;;;;;1.81;100.00;98292.66;7398420;19;20010;-68
2023/03/10 05:08:27;;;;;;;54.22;19.73;;;;;;;1.81;100.00;98285.78;7396519;19;20019;-68
2023/03/10 05:10:55;;;;;;;52.63;20.50;;;;;;;1.81;100.00;98287.50;7399139;19;20422;-69
2023/03/10 05:13:23;;;;;;;49.42;19.13;;;;;;;1.83;100.00;98280.56;7397496;19;20035;-70
2023/03/10 05:15:52;;;;;;;49.95;19.50;;;;;;;1.83;100.00;98285.72;7398644;19;20023;-69
2023/03/10 05:18:23;;;;;;;50.72;19.98;;;;;;;1.83;100.00;98273.63;7396832;19;20015;-69
2023/03/10 05:20:55;;;;;;;61.33;22.33;;;;;;;1.84;100.00;98277.09;7398058;19;20419;-69
2023/03/10 05:23:23;;;;;;;57.03;19.52;;;;;;;1.85;100.00;98265.88;7397739;19;20025;-69
2023/03/10 05:25:52;;;;;;;51.25;20.10;;;;;;;1.85;100.00;98263.28;7396034;19;20477;-69
2023/03/10 05:28:22;;;;;;;56.35;21.55;;;;;;;1.86;100.00;98260.66;7398367;19;20078;-69
2023/03/10 05:30:51;;;;;;;46.72;18.88;;;;;;;1.88;100.00;98264.03;7398516;19;20036;-69
2023/03/10 05:33:19;;;;;;;50.08;19.27;;;;;;;1.88;100.00;98258.00;7396379;19;20422;-69
2023/03/10 05:35:51;;;;;;;55.30;20.52;;;;;;;1.91;100.00;98258.78;7395095;19;20506;-69
2023/03/10 05:38:19;;;;;;;54.63;19.23;;;;;;;1.93;100.00;98254.44;7395881;19;20485;-69
2023/03/10 05:40:48;;;;;;;56.25;21.83;;;;;;;1.93;100.00;98251.84;7398087;19;20035;-70
2023/03/10 05:43:16;;;;;;;48.38;18.85;;;;;;;1.95;100.00;98244.03;7396284;19;20035;-69
2023/03/10 05:45:45;;;;;;;57.65;19.45;;;;;;;1.97;100.00;98247.41;7397745;19;20018;-69
2023/03/10 05:48:13;;;;;;;56.60;21.65;;;;;;;2.00;100.00;98246.47;7395270;19;20106;-68
2023/03/10 05:50:42;;;;;;;59.70;20.10;;;;;;;2.02;100.00;98244.72;7397629;19;20022;-68
2023/03/10 05:53:14;;;;;;;56.33;22.35;;;;;;;2.04;100.00;98240.38;7396480;19;20027;-68
2023/03/10 05:55:42;;;;;;;62.97;22.08;;;;;;;2.05;100.00;98234.31;7397903;19;20078;-69
2023/03/10 05:58:10;;;;;;;54.78;24.05;;;;;;;2.08;100.00;98234.22;7395418;19;20367;-68
2023/03/10 06:00:39;;;;;;;47.97;18.15;;;;;;;2.14;100.00;98233.19;7396348;19;20011;-69
2023/03/10 06:03:07;;;;;;;42.70;15.55;;;;;;;2.22;100.00;98232.06;7396401;19;20046;-68
2023/03/10 06:05:36;;;;;;;41.88;12.65;;;;;;;2.33;100.00;98224.03;7396266;19;20019;-69
2023/03/10 06:08:06;;;;;;;36.28;9.32;;;;;;;2.51;100.00;98219.22;7397852;19;20031;-68
2023/03/10 06:10:37;;;;;;;22.15;9.20;;;;;;;2.81;100.00;98220.03;7400915;19;20014;-68
2023/03/10 06:13:06;;;;;;;27.08;8.82;;;;;;;3.09;100.00;98219.16;7397984;19;20481;-69
2023/03/10 06:15:34;;;;;;;32.35;10.30;;;;;;;3.37;100.00;98215.69;7396151;19;20020;-69
2023/03/10 06:18:03;;;;;;;27.45;10.23;;;;;;;3.63;100.00;98217.41;7395203;19;20507;-68
2023/03/10 06:20:31;;;;;;;22.45;10.15;;;;;;;3.87;100.00;98220.06;7396353;19;20026;-68
2023/03/10 06:23:00;;;;;;;31.38;10.60;;;;;;;4.10;100.00;98215.81;7393690;19;20007;-70
2023/03/10 06:26:01;;;;;;;26.48;10.13;;;;;;;4.34;100.00;98216.66;7395939;19;20018;-69
2023/03/10 06:28:31;;;;;;;23.13;9.38;;;;;;;4.51;100.00;98210.81;7395664;19;20074;-69
2023/03/10 06:31:01;;;;;;;24.25;10.38;;;;;;;4.64;100.00;98206.88;7396177;19;20014;-69
2023/03/10 06:33:32;;;;;;;22.40;10.43;;;;;;;4.79;100.00;98214.97;7394608;19;20026;-69
2023/03/10 06:36:01;;;;;;;19.38;9.27;;;;;;;4.91;100.00;98209.28;7395616;19;20518;-69
2023/03/10 06:38:43;;;;;;;26.75;10.00;;;;;;;5.01;100.00;98213.22;7394066;19;20078;-69
2023/03/10 06:41:15;;;;;;;22.75;9.95;;;;;;;5.11;100.00;98213.69;7395788;19;20015;-69
2023/03/10 06:43:44;;;;;;;20.10;9.07;;;;;;;5.19;100.00;98210.78;7393885;19;20037;-69
2023/03/10 06:46:14;;;;;;;22.95;9.70;;;;;;;5.26;100.00;98216.56;7395317;19;20018;-69
2023/03/10 06:48:43;;;;;;;21.33;10.02;;;;;;;5.30;100.00;98208.59;7395276;19;20023;-69
2023/03/10 06:51:15;;;;;;;25.33;8.52;;;;;;;5.36;100.00;98208.34;7395803;19;20037;-68
2023/03/10 06:53:43;;;;;;;21.38;9.32;;;;;;;5.42;100.00;98215.06;7393656;19;20474;-68
2023/03/10 06:56:17;;;;;;;21.58;7.88;;;;;;;5.46;100.00;98216.63;7395640;19;20018;-68
2023/03/10 06:58:46;;;;;;;14.57;8.17;;;;;;;5.52;100.00;98218.13;7394314;19;20039;-69
2023/03/10 07:01:23;;;;;;;17.55;9.13;;;;;;;5.54;100.00;98216.31;7395544;19;20031;-68
2023/03/10 07:03:52;;;;;;;18.85;7.70;;;;;;;5.59;100.00;98218.72;7393407;19;20015;-68
2023/03/10 07:06:21;;;;;;;22.27;8.15;;;;;;;5.62;100.00;98222.00;7393806;19;20094;-69
2023/03/10 07:08:50;;;;;;;17.55;7.18;;;;;;;5.66;100.00;98220.13;7394897;19;20489;-68
2023/03/10 07:11:22;;;;;;;14.20;6.47;;;;;;;5.68;100.00;98219.16;7394661;19;20375;-70
2023/03/10 07:13:50;;;;;;;12.45;7.35;;;;;;;5.72;100.00;98214.69;7394280;19;20154;-68
2023/03/10 07:16:19;;;;;;;18.33;6.35;;;;;;;5.74;100.00;98214.59;7395244;19;20023;-69
2023/03/10 07:18:48;;;;;;;14.90;6.80;;;;;;;5.81;100.00;98227.31;7392898;19;20647;-69
2023/03/10 07:21:18;;;;;;;14.52;6.85;;;;;;;5.84;100.00;98229.78;7395125;19;20024;-69
2023/03/10 07:23:47;;;;;;;18.63;6.43;;;;;;;5.90;100.00;98226.03;7392559;19;20014;-69
2023/03/10 07:26:17;;;;;;;15.00;6.85;;;;;;;5.95;100.00;98224.13;7394057;19;20508;-69
2023/03/10 07:28:48;;;;;;;17.42;8.88;;;;;;;6.00;100.00;98224.78;7394054;19;20018;-69
2023/03/10 07:31:18;;;;;;;17.40;6.45;;;;;;;6.04;100.00;98225.50;7394717;19;20035;-69
2023/03/10 07:33:48;;;;;;;14.23;6.78;;;;;;;6.10;100.00;98230.41;7394046;19;20028;-69
2023/03/10 07:36:21;;;;;;;18.83;6.80;;;;;;;6.15;100.00;98232.84;7394631;19;20102;-70
2023/03/10 07:38:50;;;;;;;14.95;6.78;;;;;;;6.21;100.00;98229.97;7393162;19;20013;-68
2023/03/10 07:41:21;;;;;;;11.82;5.85;;;;;;;6.28;100.00;98231.41;7394604;19;20027;-68
2023/03/10 07:43:54;;;;;;;10.82;6.13;;;;;;;6.34;100.00;98231.13;7393059;19;20427;-68
2023/03/10 07:46:23;;;;;;;14.52;6.63;;;;;;;6.39;100.00;98232.66;7394240;19;20095;-68
2023/03/10 07:48:52;;;;;;;12.95;5.60;;;;;;;6.46;100.00;98228.88;7392780;19;20431;-67
2023/03/10 07:51:21;;;;;;;12.90;5.63;;;;;;;6.51;100.00;98234.72;7393840;19;20082;-68
2023/03/10 07:53:50;;;;;;;9.45;5.13;;;;;;;6.55;100.00;98236.25;7392671;19;20022;-69
2023/03/10 07:56:18;;;;;;;9.77;4.90;;;;;;;6.61;100.00;98230.78;7393372;19;20023;-69
2023/03/10 07:58:47;;;;;;;10.25;4.35;;;;;;;6.69;100.00;98233.84;7392100;19;20019;-70
2023/03/10 08:01:20;;;;;;;11.85;4.60;;;;;;;6.76;100.00;98234.44;7401008;19;20018;-70
2023/03/10 08:03:49;;;;;;;9.52;4.35;;;;;;;6.82;100.00;98231.56;7399832;19;20036;-69
2023/03/10 08:06:19;;;;;;;8.35;4.50;;;;;;;6.89;100.00;98234.72;7400882;19;20494;-69
2023/03/10 08:08:48;;;;;;;6.50;3.78;;;;;;;6.97;100.00;98237.78;7401168;19;20018;-69
2023/03/10 08:11:17;;;;;;;7.45;3.60;;;;;;;7.05;100.00;98233.97;7400700;19;20032;-69
2023/03/10 08:13:46;;;;;;;6.60;3.10;;;;;;;7.12;100.00;98238.00;7398718;19;20015;-69
2023/03/10 08:16:20;;;;;;;9.02;3.15;;;;;;;7.22;100.00;98254.06;7400533;19;20021;-69
2023/03/10 08:18:51;;;;;;;4.07;2.63;;;;;;;7.29;100.00;98253.69;7399889;19;20026;-69
2023/03/10 08:21:19;;;;;;;5.22;2.58;;;;;;;7.38;100.00;98243.72;7401322;19;20018;-70
2023/03/10 08:23:48;;;;;;;6.75;3.22;;;;;;;7.44;100.00;98246.00;7397721;19;20039;-69
2023/03/10 08:26:18;;;;;;;6.68;2.60;;;;;;;7.52;100.00;98251.72;7397180;19;20014;-70
2023/03/10 08:28:47;;;;;;;4.15;2.30;;;;;;;7.61;100.00;98246.03;7400509;19;20018;-69
2023/03/10 08:31:20;;;;;;;5.25;2.83;;;;;;;7.69;100.00;98260.47;7399955;19;20086;-69
2023/03/10 08:33:49;;;;;;;6.00;2.60;;;;;;;7.78;100.00;98258.22;7397513;19;20493;-69
2023/03/10 08:36:20;;;;;;;4.53;1.88;;;;;;;7.85;100.00;98256.19;7399489;19;20453;-69
2023/03/10 08:38:49;;;;;;;7.38;1.98;;;;;;;7.95;100.00;98267.00;7397815;19;20018;-70
2023/03/10 08:41:21;;;;;;;2.80;2.17;;;;;;;8.04;100.00;98265.66;7399992;19;20032;-70
2023/03/10 08:43:51;;;;;;;3.72;1.85;;;;;;;8.11;100.00;98264.44;7396906;19;20037;-71
2023/03/10 08:46:25;;;;;;;4.13;1.70;;;;;;;8.16;100.00;98257.22;7398862;19;20025;-69
2023/03/10 08:48:54;;;;;;;;;;;;;;;8.22;100.00;98264.72;7400617;19;20018;-69
2023/03/10 08:51:23;;;;;;;3.95;1.92;;;;;;;8.30;100.00;98270.41;7399270;19;19930;-69
2023/03/10 08:53:53;;;;;;;5.28;2.25;;;;;;;8.37;100.00;98268.31;7398090;19;20027;-70
2023/03/10 08:56:23;;;;;;;6.93;1.90;;;;;;;8.44;100.00;98269.69;7397802;19;20473;-69
2023/03/10 08:58:57;;;;;;;3.10;1.70;;;;;;;8.52;100.00;98269.31;7398115;19;20031;-67
2023/03/10 09:01:30;;;;;;;3.67;1.35;;;;;;;8.58;100.00;98271.59;7399623;19;20031;-71
2023/03/10 09:03:59;;;;;;;2.28;1.40;;;;;;;8.64;100.00;98271.28;7397491;19;20014;-71
2023/03/10 09:06:28;;;;;;;3.85;1.20;;;;;;;8.68;100.00;98271.97;7399427;19;20368;-70
2023/03/10 09:08:56;;;;;;;4.97;1.90;;;;;;;8.75;100.00;98273.31;7396729;19;20028;-71
2023/03/10 09:11:27;;;;;;;2.90;1.10;;;;;;;8.82;100.00;98279.06;7393812;19;20032;-71
2023/03/10 09:13:56;;;;;;;2.25;1.40;;;;;;;8.89;100.00;98277.78;7397072;19;20018;-71
2023/03/10 09:16:28;;;;;;;4.30;1.60;;;;;;;8.96;100.00;98289.59;7398613;19;20019;-72
2023/03/10 09:18:56;;;;;;;1.92;0.90;;;;;;;9.04;100.00;98291.81;7397317;19;20014;-71
2023/03/10 09:21:25;;;;;;;3.85;1.10;;;;;;;9.10;100.00;98280.19;7398546;19;20019;-72
2023/03/10 09:23:54;;;;;;;4.32;1.05;;;;;;;9.13;100.00;98282.59;7396991;19;20082;-71
2023/03/10 09:26:23;;;;;;;5.95;1.55;;;;;;;9.18;100.00;98284.97;7398089;19;20019;-71
2023/03/10 09:28:53;;;;;;;3.40;1.90;;;;;;;9.21;100.00;98290.88;7397625;19;20015;-71
2023/03/10 09:31:23;;;;;;;5.47;1.52;;;;;;;9.26;100.00;98295.84;7398512;19;20031;-72
2023/03/10 09:33:54;;;;;;;2.75;1.17;;;;;;;9.29;100.00;98306.16;7396222;19;20019;-72
2023/03/10 09:36:23;;;;;;;2.78;1.15;;;;;;;9.35;100.00;98292.75;7398755;19;20031;-72
2023/03/10 09:38:52;;;;;;;19.38;9.35;;;;;;;9.38;100.00;98294.34;7397695;19;20011;-71
2023/03/10 09:41:50;;;;;;;7.53;2.90;;;;;;;9.41;100.00;98299.38;7398362;19;20022;-71
2023/03/10 09:44:33;;;;;;;4.38;1.00;;;;;;;9.47;100.00;98301.66;7393998;19;20094;-71
2023/03/10 09:47:23;;;;;;;3.70;1.00;;;;;;;9.55;100.00;98306.47;7397499;19;20485;-71
2023/03/10 09:50:04;;;;;;;3.80;1.20;;;;;;;9.59;100.00;98311.44;7397330;19;20480;-71
2023/03/10 09:52:45;;;;;;;2.80;1.10;;;;;;;9.66;100.00;98308.47;7398007;19;20016;-71
2023/03/10 09:55:22;;;;;;;2.00;1.33;;;;;;;9.68;100.00;98298.75;7397803;19;20026;-71
2023/03/10 09:57:53;;;;;;;2.47;1.33;;;;;;;9.70;100.00;98302.97;7398581;19;20019;-71
2023/03/10 10:00:24;;;;;;;4.00;1.25;;;;;;;9.71;100.00;98298.59;7395986;19;20026;-71
2023/03/10 10:03:07;;;;;;;3.63;1.17;;;;;;;9.75;100.00;98297.47;7396562;19;20026;-71
2023/03/10 10:05:39;;;;;;;1.52;0.90;;;;;;;9.80;100.00;98310.31;7397138;19;20026;-71
2023/03/10 10:08:17;;;;;;;4.88;0.90;;;;;;;9.86;100.00;98307.34;7396700;19;20018;-71
2023/03/10 10:10:49;;;;;;;3.03;0.88;;;;;;;9.92;100.00;98305.19;7397533;19;20035;-72
2023/03/10 10:13:21;;;;;;;3.22;1.90;;;;;;;9.95;100.00;98304.19;7396429;19;20353;-73
2023/03/10 10:15:54;;;;;;;2.40;1.23;;;;;;;10.01;100.00;98300.34;7396719;19;20022;-71
2023/03/10 10:18:29;;;;;;;4.38;1.30;;;;;;;10.06;100.00;98308.78;7396770;19;20031;-71
2023/03/10 10:21:07;;;;;;;4.95;0.90;;;;;;;10.11;99.16;98307.59;7396862;19;20018;-70
2023/03/10 10:23:42;;;;;;;1.50;0.90;;;;;;;10.17;100.00;98310.78;7395062;19;20035;-71
2023/03/10 10:26:14;;;;;;;1.77;0.90;;;;;;;10.24;99.75;98309.47;7396142;19;20485;-71
2023/03/10 10:28:45;;;;;;;3.25;1.08;;;;;;;10.27;100.00;98322.41;7396414;19;20010;-71
2023/03/10 10:31:18;;;;;;;3.65;1.30;;;;;;;10.26;97.47;98320.69;7395841;19;20010;-72
2023/03/10 10:33:56;;;;;;;2.88;1.15;;;;;;;10.24;94.60;98326.03;7394003;19;20027;-71
2023/03/10 10:36:29;;;;;;;1.25;1.00;;;;;;;10.30;98.24;98321.38;7396211;19;20470;-73
2023/03/10 10:38:59;;;;;;;8.27;3.47;;;;;;;10.31;99.11;98326.50;7394034;19;20090;-71
2023/03/10 10:41:30;;;;;;;4.18;1.52;;;;;;;10.30;97.49;98314.38;7393597;19;20014;-72
2023/03/10 10:44:01;;;;;;;4.13;1.25;;;;;;;10.28;97.48;98314.44;7394646;19;20023;-72
2023/03/10 10:46:31;;;;;;;5.38;2.40;;;;;;;10.31;99.73;98318.66;7395317;19;20027;-72
2023/03/10 10:49:06;;;;;;;10.95;4.97;;;;;;;10.33;98.90;98321.19;7395529;19;20022;-73
2023/03/10 10:51:38;;;;;;;19.95;7.65;;;;;;;10.36;98.73;98321.03;7396033;19;20014;-71
2023/03/10 10:54:27;;;;;;;4.38;2.13;;;;;;;10.41;97.87;98305.88;7394611;19;20022;-71
2023/03/10 10:56:57;;;;;;;6.10;2.70;;;;;;;10.48;97.91;98309.81;7393528;19;20018;-72
2023/03/10 10:59:30;;;;;;;4.93;2.88;;;;;;;10.55;96.09;98316.38;7394376;19;20022;-70
2023/03/10 11:02:01;;;;;;;4.95;1.70;;;;;;;10.63;96.48;98315.91;7392917;19;20082;-71
2023/03/10 11:04:45;;;;;;;4.50;1.40;;;;;;;10.69;94.72;98322.56;7390190;19;20010;-72
2023/03/10 11:07:20;;;;;;;4.38;1.60;;;;;;;10.73;91.05;98316.22;7393283;19;20026;-72
2023/03/10 11:09:49;;;;;;;3.75;1.30;;;;;;;10.81;93.34;98313.13;7395523;19;20018;-71
2023/03/10 11:12:23;;;;;;;5.35;1.75;;;;;;;10.84;90.60;98326.88;7393873;19;20015;-71
2023/03/10 11:15:05;;;;;;;5.28;1.30;;;;;;;10.94;92.63;98315.81;7392585;19;20015;-72
2023/03/10 11:17:39;;;;;;;5.55;3.15;;;;;;;11.04;95.03;98309.06;7392409;19;20354;-72
2023/03/10 11:20:16;;;;;;;;;;;;;;;11.07;85.07;98314.94;7393738;19;20019;-71
2023/03/10 11:22:51;;;;;;;4.68;1.48;;;;;;;11.09;89.79;98306.97;7392990;19;19922;-71
2023/03/10 11:25:27;;;;;;;2.22;0.70;;;;;;;11.21;87.25;98313.25;7396391;19;20118;-72
2023/03/10 11:28:15;;;;;;;4.82;1.40;;;;;;;11.27;86.00;98312.00;7396493;19;20035;-72
2023/03/10 11:30:50;;;;;;;2.60;1.38;;;;;;;11.33;83.35;98301.13;7395755;19;20015;-72
2023/03/10 11:33:28;;;;;;;7.57;1.85;;;;;;;11.37;84.73;98307.84;7392722;19;20031;-71
2023/03/10 11:36:00;;;;;;;3.85;1.52;;;;;;;11.47;88.84;98297.59;7403714;19;20019;-70
2023/03/10 11:38:41;;;;;;;4.47;2.40;;;;;;;11.55;86.87;98296.16;7403707;19;20707;-70
2023/03/10 11:41:14;;;;;;;2.35;1.10;;;;;;;11.63;87.48;98292.22;7398384;19;20018;-70